Impacts METAR Board
IDs:

KORD - Chicago/O'Hare Intl, IL, US

Updated at: 1000 UTC 30 Oct 2020
Potential Impact None Slight Moderate High
Time 29/22Z 29/23Z 30/00Z 30/01Z 30/02Z 30/03Z 30/04Z 30/05Z 30/06Z 30/07Z 30/08Z 30/09Z 30/10Z
Temp44 42 41 40 37 38 37 36 35 33 33 32 32
Dewpt31 30 29 28 27 24 23 23 23 23 23 22 22
Altim29.97 29.98 30.00 30.02 30.04 30.07 30.08 30.10 30.11 30.12 30.14 30.15 30.16
VIS10 10 10 10 10 10 10 10 10 10 10 10 10
CIG47 47 49 -- 48 48 47 -- 36 -- -- -- --
CoverBKNBKNBKNSCTBKNBKNBKNFEWBKNSCTFEWCLRFEW
FltCatVFRVFRVFRVFRVFRVFRVFRVFRVFRVFRVFRVFRVFR
WX--------------------------
WDir1010350330350340340320320320320320330
WSpd21 16 15 10 8 10 8 8 9 7 7 8 7
WGst27 -- -- -- -- 21 -- -- -- -- -- -- --
Raw hourly METARs
KORD 292151Z 01021G27KT 10SM FEW025 BKN047 07/M01 A2997 RMK AO2 PK WND 01033/2117 SLP151 T00671006 $
KORD 292251Z 01016KT 10SM FEW028 BKN047 06/M01 A2998 RMK AO2 PK WND 01027/2153 SLP155 T00561011 $
KORD 292351Z 35015KT 10SM FEW028 BKN049 05/M02 A3000 RMK AO2 PK WND 36026/2307 SLP164 T00501017 10089 20050 51025 $
KORD 300051Z 33010KT 10SM FEW025 SCT048 04/M02 A3002 RMK AO2 SLP168 T00441022 $
KORD 300151Z 35008KT 10SM FEW025 BKN048 03/M03 A3004 RMK AO2 SLP178 T00281028 $
KORD 300251Z 34010G21KT 10SM BKN048 03/M04 A3007 RMK AO2 SLP187 T00331044 53021 $
KORD 300351Z 34008KT 10SM BKN047 03/M05 A3008 RMK AO2 SLP191 T00281050 $
KORD 300451Z 32008KT 10SM FEW047 02/M05 A3010 RMK AO2 SLP198 T00221050 $
KORD 300551Z 32009KT 10SM BKN036 BKN044 02/M05 A3011 RMK AO2 SLP202 T00171050 10050 20017 400940017 51015 $
KORD 300651Z 32007KT 10SM FEW044 SCT190 01/M05 A3012 RMK AO2 SLP204 T00061050 $
KORD 300751Z 32007KT 10SM FEW044 01/M05 A3014 RMK AO2 SLP213 T00061050 $
KORD 300851Z 32008KT 10SM CLR 00/M06 A3015 RMK AO2 SLP214 T00001056 51011 $
KORD 300951Z 33007KT 10SM FEW044 00/M06 A3016 RMK AO2 SLP220 T00001056 $



Page loaded:  10:11 UTC  |   03:11 AM Pacific  |   04:11 AM Mountain  |   05:11 AM Central  |   06:11 AM Eastern

 

ADVISORIES

FORECASTS

FORECASTS

OBSERVATIONS

USER TOOLS

ABOUT US